createdAt,value
2017-11-07T00:00:09.043Z,100.00
2017-11-07T00:01:14.991Z,100.00
2017-11-07T00:02:20.937Z,100.00
2017-11-07T00:03:27.052Z,100.00
2017-11-07T00:04:33.181Z,100.00
2017-11-07T00:05:39.320Z,100.00
2017-11-07T00:06:45.227Z,100.00
2017-11-07T00:07:50.979Z,100.00
2017-11-07T00:08:56.928Z,100.00
2017-11-07T00:10:03.069Z,100.00
2017-11-07T00:11:09.064Z,100.00
2017-11-07T00:12:15.346Z,100.00
2017-11-07T00:13:21.457Z,100.00
2017-11-07T00:14:32.221Z,100.00
2017-11-07T00:15:38.380Z,100.00
2017-11-07T00:16:44.167Z,100.00
2017-11-07T00:17:50.287Z,99.84
2017-11-07T00:19:02.284Z,100.00
2017-11-07T00:20:10.069Z,100.00
2017-11-07T00:21:20.926Z,99.55
2017-11-07T00:22:36.423Z,99.70
2017-11-07T00:23:45.267Z,100.00
2017-11-07T00:24:51.375Z,100.00
2017-11-07T00:25:57.465Z,100.00
2017-11-07T00:27:03.578Z,100.00
2017-11-07T00:28:09.697Z,100.00
2017-11-07T00:29:15.906Z,100.00
2017-11-07T00:30:22.013Z,100.00
2017-11-07T00:31:27.965Z,100.00
2017-11-07T00:32:34.112Z,100.00
2017-11-07T00:33:40.230Z,99.55
2017-11-07T00:34:46.340Z,99.42
2017-11-07T00:35:52.449Z,99.37
2017-11-07T00:36:58.576Z,99.87
2017-11-07T00:38:04.679Z,99.88
2017-11-07T00:39:10.819Z,100.00
2017-11-07T00:40:20.872Z,100.00
2017-11-07T00:41:26.979Z,100.00
2017-11-07T00:42:33.119Z,100.00
2017-11-07T00:43:39.280Z,100.00
2017-11-07T00:44:45.400Z,100.00
2017-11-07T00:45:51.147Z,100.00
2017-11-07T00:46:57.278Z,100.00
2017-11-07T00:48:03.400Z,100.00
2017-11-07T00:49:09.529Z,100.00
2017-11-07T00:50:15.654Z,100.00
2017-11-07T00:51:21.764Z,100.00
2017-11-07T00:52:29.209Z,100.00
2017-11-07T00:53:35.341Z,100.00
2017-11-07T00:54:43.387Z,100.00
2017-11-07T00:55:51.215Z,100.00
2017-11-07T00:56:57.367Z,100.00
2017-11-07T00:58:03.245Z,99.85
2017-11-07T00:59:12.210Z,99.33
2017-11-07T01:00:18.317Z,99.34
2017-11-07T01:01:24.204Z,99.27
2017-11-07T01:02:30.310Z,99.22
2017-11-07T01:03:36.231Z,99.80
2017-11-07T01:04:42.324Z,99.89
2017-11-07T01:05:48.399Z,99.85
2017-11-07T01:06:54.555Z,99.82
2017-11-07T01:08:00.764Z,99.85
2017-11-07T01:09:06.314Z,99.87
2017-11-07T01:10:12.455Z,99.76
2017-11-07T01:11:18.571Z,99.88
2017-11-07T01:12:24.718Z,99.60
2017-11-07T01:13:30.806Z,99.55
2017-11-07T01:14:40.995Z,99.35
2017-11-07T01:15:47.095Z,99.44
2017-11-07T01:16:53.229Z,99.56
2017-11-07T01:17:59.307Z,99.68
2017-11-07T01:19:10.007Z,100.00
2017-11-07T01:20:16.108Z,100.00
2017-11-07T01:21:22.208Z,100.00
2017-11-07T01:22:28.370Z,100.00
2017-11-07T01:23:34.456Z,100.00
2017-11-07T01:24:40.358Z,100.00
2017-11-07T01:25:46.491Z,99.64
2017-11-07T01:26:52.608Z,99.22
2017-11-07T01:27:58.724Z,98.79
2017-11-07T01:29:04.812Z,98.50
2017-11-07T01:30:10.908Z,98.41
2017-11-07T01:31:17.071Z,98.49
2017-11-07T01:32:23.207Z,99.12
2017-11-07T01:33:29.295Z,99.29
2017-11-07T01:34:35.471Z,99.23
2017-11-07T01:35:41.589Z,99.08
2017-11-07T01:36:47.701Z,98.71
2017-11-07T01:37:53.835Z,98.69
2017-11-07T01:38:59.954Z,98.76
2017-11-07T01:40:06.061Z,98.85
2017-11-07T01:41:12.167Z,98.76
2017-11-07T01:42:18.236Z,98.47
2017-11-07T01:43:24.383Z,98.71
2017-11-07T01:44:30.466Z,98.65
2017-11-07T01:45:36.728Z,98.70
2017-11-07T01:46:42.911Z,98.76
2017-11-07T01:47:49.295Z,99.18
2017-11-07T01:48:55.385Z,99.43
2017-11-07T01:50:01.486Z,99.64
2017-11-07T01:51:07.586Z,99.58
2017-11-07T01:52:13.686Z,99.26
2017-11-07T01:53:19.809Z,98.72
2017-11-07T01:54:25.939Z,98.89
2017-11-07T01:55:32.036Z,98.96
2017-11-07T01:56:37.813Z,99.14
2017-11-07T01:57:43.052Z,99.90
2017-11-07T01:58:49.198Z,100.00
2017-11-07T01:59:55.322Z,99.96
2017-11-07T02:01:01.438Z,100.00
2017-11-07T02:02:07.460Z,100.00
2017-11-07T02:03:18.024Z,100.00
2017-11-07T02:04:24.148Z,99.78
2017-11-07T02:05:29.932Z,99.57
2017-11-07T02:06:35.826Z,99.06
2017-11-07T02:07:41.953Z,98.80
2017-11-07T02:08:48.055Z,98.20
2017-11-07T02:09:53.680Z,98.58
2017-11-07T02:10:59.793Z,98.59
2017-11-07T02:12:05.872Z,99.12
2017-11-07T02:13:12.037Z,99.61
2017-11-07T02:14:18.161Z,99.36
2017-11-07T02:15:23.552Z,99.07
2017-11-07T02:16:29.459Z,99.26
2017-11-07T02:17:35.563Z,99.19
2017-11-07T02:18:41.724Z,98.92
2017-11-07T02:19:47.111Z,98.84
2017-11-07T02:20:52.506Z,98.78
2017-11-07T02:21:57.883Z,99.08
2017-11-07T02:23:03.690Z,98.90
2017-11-07T02:24:09.085Z,99.17
2017-11-07T02:25:14.492Z,98.98
2017-11-07T02:26:23.766Z,98.79
2017-11-07T02:27:29.164Z,99.28
2017-11-07T02:28:34.555Z,99.50
2017-11-07T02:29:40.364Z,99.32
2017-11-07T02:30:46.104Z,99.19
2017-11-07T02:31:52.808Z,99.13
2017-11-07T02:32:58.188Z,98.71
2017-11-07T02:34:04.484Z,99.08
2017-11-07T02:35:09.701Z,99.50
2017-11-07T02:36:16.109Z,99.69
2017-11-07T02:37:22.230Z,99.66
2017-11-07T02:38:28.193Z,100.00
2017-11-07T02:39:34.313Z,100.00
2017-11-07T02:40:40.447Z,100.00
2017-11-07T02:41:46.555Z,100.00
2017-11-07T02:42:52.355Z,100.00
2017-11-07T02:43:58.493Z,100.00
2017-11-07T02:45:04.250Z,100.00
2017-11-07T02:46:10.360Z,100.00
2017-11-07T02:47:16.450Z,99.58
2017-11-07T02:48:22.542Z,99.54
2017-11-07T02:49:28.664Z,99.52
2017-11-07T02:50:34.785Z,99.06
2017-11-07T02:51:40.890Z,98.98
2017-11-07T02:52:46.971Z,98.45
2017-11-07T02:53:52.723Z,98.31
2017-11-07T02:54:58.801Z,98.56
2017-11-07T02:56:04.882Z,98.56
2017-11-07T02:57:10.958Z,98.53
2017-11-07T02:58:17.197Z,98.69
2017-11-07T02:59:23.325Z,100.00
2017-11-07T03:00:29.052Z,99.77
2017-11-07T03:01:34.952Z,99.71
2017-11-07T03:02:40.904Z,99.72
2017-11-07T03:03:47.063Z,99.41
2017-11-07T03:04:53.169Z,99.29
2017-11-07T03:05:59.279Z,99.16
2017-11-07T03:07:05.363Z,99.27
2017-11-07T03:08:11.460Z,99.02
2017-11-07T03:09:17.576Z,100.00
2017-11-07T03:10:23.721Z,100.00
2017-11-07T03:11:29.918Z,100.00
2017-11-07T03:12:36.034Z,100.00
2017-11-07T03:13:42.163Z,100.00
2017-11-07T03:14:48.304Z,100.00
2017-11-07T03:15:53.687Z,100.00
2017-11-07T03:16:59.775Z,100.00
2017-11-07T03:18:05.878Z,99.68
2017-11-07T03:19:12.083Z,99.20
2017-11-07T03:20:18.197Z,99.24
2017-11-07T03:21:24.326Z,99.09
2017-11-07T03:22:30.276Z,99.21
2017-11-07T03:23:36.404Z,99.31
2017-11-07T03:24:42.507Z,99.57
2017-11-07T03:25:52.334Z,99.17
2017-11-07T03:26:58.487Z,99.58
2017-11-07T03:28:04.601Z,99.73
2017-11-07T03:29:10.710Z,99.65
2017-11-07T03:30:17.015Z,99.49
2017-11-07T03:31:23.227Z,99.54
2017-11-07T03:32:29.357Z,99.95
2017-11-07T03:33:35.458Z,100.00
2017-11-07T03:34:41.598Z,100.00
2017-11-07T03:35:47.705Z,100.00
2017-11-07T03:36:54.838Z,100.00
2017-11-07T03:38:00.965Z,100.00
2017-11-07T03:39:07.072Z,100.00
2017-11-07T03:40:13.015Z,100.00
2017-11-07T03:41:19.164Z,100.00
2017-11-07T03:42:25.292Z,99.56
2017-11-07T03:43:31.387Z,99.09
2017-11-07T03:44:37.357Z,98.69
2017-11-07T03:45:43.457Z,99.16
2017-11-07T03:46:49.542Z,98.96
2017-11-07T03:47:55.629Z,99.22
2017-11-07T03:49:01.729Z,99.20
2017-11-07T03:50:07.889Z,99.39
2017-11-07T03:51:13.995Z,99.02
2017-11-07T03:52:20.109Z,99.25
2017-11-07T03:53:27.012Z,99.15
2017-11-07T03:54:33.211Z,99.12
2017-11-07T03:55:39.321Z,99.02
2017-11-07T03:56:45.426Z,99.15
2017-11-07T03:57:51.544Z,99.44
2017-11-07T03:58:57.618Z,99.33
2017-11-07T04:00:04.537Z,99.18
2017-11-07T04:01:11.494Z,99.13
2017-11-07T04:02:17.570Z,99.22
2017-11-07T04:03:23.703Z,99.52
2017-11-07T04:04:30.572Z,99.81
2017-11-07T04:05:36.980Z,99.59
2017-11-07T04:06:43.064Z,99.77
2017-11-07T04:07:49.143Z,100.00
2017-11-07T04:08:55.278Z,100.00
2017-11-07T04:10:01.428Z,99.96
2017-11-07T04:11:07.508Z,100.00
2017-11-07T04:12:13.600Z,99.48
2017-11-07T04:13:19.710Z,99.03
2017-11-07T04:14:25.836Z,98.91
2017-11-07T04:15:35.926Z,99.03
2017-11-07T04:16:42.263Z,99.24
2017-11-07T04:17:48.351Z,98.59
2017-11-07T04:18:54.454Z,98.57
2017-11-07T04:20:00.593Z,98.86
2017-11-07T04:21:06.683Z,98.96
2017-11-07T04:22:12.805Z,98.47
2017-11-07T04:23:18.929Z,98.56
2017-11-07T04:24:25.068Z,99.15
2017-11-07T04:25:42.946Z,98.89
2017-11-07T04:26:52.963Z,98.74
2017-11-07T04:27:59.064Z,99.35
2017-11-07T04:29:05.207Z,99.61
2017-11-07T04:30:11.634Z,99.67
2017-11-07T04:31:18.006Z,99.70
2017-11-07T04:32:24.608Z,99.91
2017-11-07T04:33:30.771Z,100.00
2017-11-07T04:34:37.046Z,100.00
2017-11-07T04:35:43.234Z,100.00
2017-11-07T04:36:49.313Z,100.00
2017-11-07T04:37:55.460Z,100.00
2017-11-07T04:39:01.586Z,100.00
2017-11-07T04:40:09.661Z,100.00
2017-11-07T04:41:15.806Z,100.00
2017-11-07T04:42:21.939Z,100.00
2017-11-07T04:43:28.070Z,100.00
2017-11-07T04:44:34.256Z,100.00
2017-11-07T04:45:40.407Z,100.00
2017-11-07T04:46:46.623Z,100.00
2017-11-07T04:47:52.803Z,100.00
2017-11-07T04:48:58.961Z,100.00
2017-11-07T04:50:05.073Z,100.00
2017-11-07T04:51:11.234Z,99.94
2017-11-07T04:52:17.378Z,99.63
2017-11-07T04:53:23.536Z,99.95
2017-11-07T04:54:29.643Z,99.91
2017-11-07T04:55:35.804Z,100.00
2017-11-07T04:56:41.918Z,100.00
2017-11-07T04:57:48.010Z,100.00
2017-11-07T04:58:54.120Z,100.00
2017-11-07T05:00:00.232Z,100.00
2017-11-07T05:01:06.367Z,99.85
2017-11-07T05:02:12.576Z,99.79
2017-11-07T05:03:18.723Z,99.69
2017-11-07T05:04:24.793Z,99.44
2017-11-07T05:05:30.897Z,99.64
2017-11-07T05:06:37.007Z,99.61
2017-11-07T05:07:43.132Z,99.30
2017-11-07T05:08:49.246Z,99.13
2017-11-07T05:09:55.320Z,99.23
2017-11-07T05:11:01.272Z,99.11
2017-11-07T05:12:07.386Z,99.00
2017-11-07T05:13:13.486Z,99.36
2017-11-07T05:14:19.594Z,99.40
2017-11-07T05:15:25.684Z,99.76
2017-11-07T05:16:31.801Z,99.81
2017-11-07T05:17:37.883Z,100.00
2017-11-07T05:18:43.797Z,99.65
2017-11-07T05:19:49.885Z,99.64
2017-11-07T05:20:55.277Z,99.86
2017-11-07T05:22:01.400Z,99.90
2017-11-07T05:23:07.532Z,99.81
2017-11-07T05:24:14.417Z,100.00
2017-11-07T05:25:22.159Z,100.00
2017-11-07T05:26:30.021Z,100.00
2017-11-07T05:27:37.362Z,100.00
2017-11-07T05:28:44.078Z,100.00
2017-11-07T05:29:50.187Z,100.00
2017-11-07T05:30:55.925Z,99.93
2017-11-07T05:32:02.059Z,99.87
2017-11-07T05:33:08.145Z,99.72
2017-11-07T05:34:14.257Z,99.55
2017-11-07T05:35:20.374Z,99.21
2017-11-07T05:36:26.475Z,98.66
2017-11-07T05:37:32.586Z,99.49
2017-11-07T05:38:38.719Z,99.35
2017-11-07T05:39:44.922Z,99.18
2017-11-07T05:40:51.014Z,99.35
2017-11-07T05:41:57.165Z,99.38
2017-11-07T05:43:03.324Z,98.89
2017-11-07T05:44:09.404Z,98.39
2017-11-07T05:45:15.536Z,98.47
2017-11-07T05:46:20.945Z,98.59
2017-11-07T05:47:26.749Z,98.60
2017-11-07T05:48:32.859Z,98.84
2017-11-07T05:49:39.004Z,99.14
2017-11-07T05:50:44.413Z,99.33
2017-11-07T05:51:49.618Z,99.32
2017-11-07T05:52:55.755Z,99.45
2017-11-07T05:54:01.501Z,99.29
2017-11-07T05:55:07.606Z,99.50
2017-11-07T05:56:13.692Z,99.29
2017-11-07T05:57:19.782Z,99.45
2017-11-07T05:58:25.903Z,99.16
2017-11-07T05:59:32.016Z,98.90
2017-11-07T06:00:37.759Z,99.13
2017-11-07T06:01:43.840Z,99.04
2017-11-07T06:02:50.002Z,98.80
2017-11-07T06:03:56.090Z,98.69
2017-11-07T06:05:02.186Z,98.66
2017-11-07T06:06:08.295Z,98.62
2017-11-07T06:07:14.378Z,98.88
2017-11-07T06:08:20.482Z,99.05
2017-11-07T06:09:26.573Z,99.11
2017-11-07T06:10:32.711Z,99.31
2017-11-07T06:11:38.762Z,99.11
2017-11-07T06:12:44.914Z,98.92
2017-11-07T06:13:51.010Z,98.89
2017-11-07T06:14:57.111Z,98.61
2017-11-07T06:16:02.849Z,98.39
2017-11-07T06:17:08.955Z,98.10
2017-11-07T06:18:15.064Z,98.38
2017-11-07T06:19:21.141Z,98.46
2017-11-07T06:20:26.944Z,97.87
2017-11-07T06:21:33.047Z,98.25
2017-11-07T06:22:39.152Z,98.41
2017-11-07T06:23:46.902Z,98.90
2017-11-07T06:24:53.008Z,98.75
2017-11-07T06:25:59.577Z,98.76
2017-11-07T06:27:05.657Z,98.52
2017-11-07T06:28:11.765Z,98.03
2017-11-07T06:29:17.870Z,97.99
2017-11-07T06:30:23.979Z,98.12
2017-11-07T06:31:30.082Z,98.21
2017-11-07T06:32:36.193Z,97.72
2017-11-07T06:33:42.302Z,97.74
2017-11-07T06:34:48.400Z,97.77
2017-11-07T06:35:54.317Z,97.51
2017-11-07T06:37:00.409Z,97.65
2017-11-07T06:38:06.517Z,97.59
2017-11-07T06:39:12.682Z,97.29
2017-11-07T06:40:19.779Z,97.25
2017-11-07T06:41:25.876Z,97.48
2017-11-07T06:42:31.958Z,97.41
2017-11-07T06:43:38.076Z,97.43
2017-11-07T06:44:44.235Z,97.37
2017-11-07T06:45:50.349Z,97.37
2017-11-07T06:46:56.464Z,97.14
2017-11-07T06:48:02.595Z,97.74
2017-11-07T06:49:08.655Z,98.22
2017-11-07T06:50:14.775Z,98.27
2017-11-07T06:51:20.860Z,98.03
2017-11-07T06:52:26.956Z,97.78
2017-11-07T06:53:33.082Z,97.64
2017-11-07T06:54:39.196Z,97.26
2017-11-07T06:55:45.315Z,96.98
2017-11-07T06:56:51.426Z,97.40
2017-11-07T06:57:56.837Z,97.71
2017-11-07T06:59:02.578Z,97.62
2017-11-07T07:00:08.308Z,97.55
2017-11-07T07:01:14.054Z,97.57
2017-11-07T07:02:19.434Z,97.94
2017-11-07T07:03:25.576Z,98.19
2017-11-07T07:04:31.668Z,97.84
2017-11-07T07:05:37.788Z,97.60
2017-11-07T07:06:43.895Z,98.02
2017-11-07T07:07:49.691Z,97.62
2017-11-07T07:08:56.035Z,97.38
2017-11-07T07:10:02.150Z,98.00
2017-11-07T07:11:07.894Z,97.91
2017-11-07T07:12:14.018Z,98.13
2017-11-07T07:13:19.772Z,98.24
2017-11-07T07:14:25.909Z,97.97
2017-11-07T07:15:32.002Z,98.17
2017-11-07T07:16:38.116Z,98.40
2017-11-07T07:17:44.190Z,98.05
2017-11-07T07:18:50.331Z,97.79
2017-11-07T07:19:56.436Z,97.51
2017-11-07T07:21:02.529Z,97.27
2017-11-07T07:22:08.632Z,97.24
2017-11-07T07:23:14.736Z,97.24
2017-11-07T07:24:20.888Z,97.19
2017-11-07T07:25:26.997Z,97.69
2017-11-07T07:26:33.079Z,97.61
2017-11-07T07:27:39.158Z,97.79
2017-11-07T07:28:45.324Z,97.79
2017-11-07T07:29:51.410Z,98.16
2017-11-07T07:30:57.151Z,98.06
2017-11-07T07:32:03.232Z,97.88
2017-11-07T07:33:09.315Z,97.95
2017-11-07T07:34:15.428Z,97.62
2017-11-07T07:35:21.525Z,97.49
2017-11-07T07:36:27.638Z,97.44
2017-11-07T07:37:33.715Z,97.72
2017-11-07T07:38:39.492Z,97.88
2017-11-07T07:39:45.585Z,98.28
2017-11-07T07:40:54.525Z,98.54
2017-11-07T07:42:00.630Z,98.59
2017-11-07T07:43:06.711Z,98.26
2017-11-07T07:44:12.842Z,98.66
2017-11-07T07:45:18.923Z,98.91
2017-11-07T07:46:25.035Z,98.79
2017-11-07T07:47:31.097Z,98.30
2017-11-07T07:48:41.053Z,98.45
2017-11-07T07:49:47.173Z,98.57
2017-11-07T07:50:53.325Z,98.33
2017-11-07T07:51:59.406Z,98.18
2017-11-07T07:53:05.477Z,98.03
2017-11-07T07:54:11.412Z,97.94
2017-11-07T07:55:17.543Z,97.28
2017-11-07T07:56:23.670Z,97.49
2017-11-07T07:57:29.829Z,98.03
2017-11-07T07:58:35.979Z,97.86
2017-11-07T07:59:42.076Z,98.14
2017-11-07T08:00:48.205Z,98.20
2017-11-07T08:01:53.960Z,98.20
2017-11-07T08:03:00.096Z,98.20
2017-11-07T08:04:05.508Z,98.34
2017-11-07T08:05:10.895Z,98.17
2017-11-07T08:06:18.822Z,97.80
2017-11-07T08:07:24.169Z,97.91
2017-11-07T08:08:29.397Z,97.97
2017-11-07T08:09:35.300Z,97.93
2017-11-07T08:10:40.689Z,97.94
2017-11-07T08:11:46.599Z,98.15
2017-11-07T08:12:52.672Z,97.86
2017-11-07T08:13:58.612Z,98.05
2017-11-07T08:15:04.205Z,97.95
2017-11-07T08:16:09.601Z,97.96
2017-11-07T08:17:15.718Z,97.58
2017-11-07T08:18:21.803Z,97.12
2017-11-07T08:19:27.934Z,96.93
2017-11-07T08:20:33.301Z,97.14
2017-11-07T08:21:39.410Z,97.95
2017-11-07T08:22:49.028Z,98.15
2017-11-07T08:23:55.149Z,98.90
2017-11-07T08:25:01.243Z,98.56
2017-11-07T08:26:07.418Z,99.08
2017-11-07T08:27:13.547Z,99.39
2017-11-07T08:28:19.684Z,99.27
2017-11-07T08:29:25.863Z,99.37
2017-11-07T08:30:31.973Z,99.52
2017-11-07T08:31:38.066Z,99.76
2017-11-07T08:32:43.883Z,99.70
2017-11-07T08:33:49.985Z,99.79
2017-11-07T08:34:56.113Z,99.77
2017-11-07T08:36:02.234Z,99.37
2017-11-07T08:37:08.343Z,99.03
2017-11-07T08:38:14.455Z,98.94
2017-11-07T08:39:20.565Z,99.46
2017-11-07T08:40:26.322Z,99.51
2017-11-07T08:41:32.454Z,99.82
2017-11-07T08:42:38.560Z,99.30
2017-11-07T08:43:44.670Z,99.25
2017-11-07T08:44:50.839Z,99.46
2017-11-07T08:45:56.948Z,99.72
2017-11-07T08:47:03.064Z,99.47
2017-11-07T08:48:09.162Z,99.69
2017-11-07T08:49:15.267Z,99.49
2017-11-07T08:50:21.417Z,99.35
2017-11-07T08:51:27.490Z,99.53
2017-11-07T08:52:33.608Z,99.67
2017-11-07T08:53:39.732Z,99.53
2017-11-07T08:54:45.493Z,99.08
2017-11-07T08:55:51.587Z,99.44
2017-11-07T08:56:57.710Z,99.85
2017-11-07T08:58:03.796Z,99.75
2017-11-07T08:59:09.896Z,99.51
2017-11-07T09:00:15.984Z,99.36
2017-11-07T09:01:22.065Z,99.38
2017-11-07T09:02:28.165Z,99.44
2017-11-07T09:03:34.291Z,99.07
2017-11-07T09:04:40.425Z,98.67
2017-11-07T09:05:46.511Z,98.99
2017-11-07T09:06:52.580Z,99.07
2017-11-07T09:07:58.336Z,99.08
2017-11-07T09:09:03.698Z,99.48
2017-11-07T09:10:09.114Z,99.42
2017-11-07T09:11:14.317Z,99.50
2017-11-07T09:12:20.085Z,99.45
2017-11-07T09:13:26.173Z,99.26
2017-11-07T09:14:31.959Z,99.33
2017-11-07T09:15:37.783Z,99.21
2017-11-07T09:16:44.621Z,99.59
2017-11-07T09:17:50.697Z,99.47
2017-11-07T09:18:56.756Z,99.64
2017-11-07T09:20:02.890Z,99.78
2017-11-07T09:21:08.957Z,100.00
2017-11-07T09:22:15.047Z,100.00
2017-11-07T09:23:21.141Z,99.81
2017-11-07T09:24:27.207Z,99.72
2017-11-07T09:25:33.322Z,99.47
2017-11-07T09:26:39.390Z,99.20
2017-11-07T09:27:45.431Z,99.15
2017-11-07T09:28:51.288Z,99.02
2017-11-07T09:29:57.340Z,98.72
2017-11-07T09:31:03.434Z,98.42
2017-11-07T09:32:09.523Z,98.72
2017-11-07T09:33:15.597Z,98.82
2017-11-07T09:34:21.665Z,98.90
2017-11-07T09:35:27.749Z,98.89
2017-11-07T09:36:33.864Z,98.81
2017-11-07T09:37:39.968Z,98.68
2017-11-07T09:38:46.043Z,98.99
2017-11-07T09:39:52.106Z,98.99
2017-11-07T09:40:58.215Z,99.35
2017-11-07T09:42:04.294Z,99.60
2017-11-07T09:43:10.373Z,99.50
2017-11-07T09:44:16.469Z,99.50
2017-11-07T09:45:22.519Z,99.53
2017-11-07T09:46:28.398Z,99.50
2017-11-07T09:47:34.487Z,99.74
2017-11-07T09:48:40.550Z,100.00
2017-11-07T09:49:46.644Z,100.00
2017-11-07T09:50:52.765Z,100.00
2017-11-07T09:51:58.838Z,99.89
2017-11-07T09:53:04.548Z,99.60
2017-11-07T09:54:10.627Z,99.50
2017-11-07T09:55:16.689Z,99.54
2017-11-07T09:56:22.774Z,99.58
2017-11-07T09:57:28.814Z,99.60
2017-11-07T09:58:34.890Z,99.45
2017-11-07T09:59:40.947Z,99.56
2017-11-07T10:00:47.027Z,99.49
2017-11-07T10:01:53.124Z,99.48
2017-11-07T10:02:59.207Z,99.36
2017-11-07T10:04:05.243Z,99.48
2017-11-07T10:05:11.878Z,99.60
2017-11-07T10:06:17.980Z,99.61
2017-11-07T10:07:24.021Z,99.57
2017-11-07T10:08:30.121Z,99.48
2017-11-07T10:09:36.187Z,99.25
2017-11-07T10:10:42.281Z,98.96
2017-11-07T10:11:48.330Z,98.74
2017-11-07T10:12:54.409Z,98.81
2017-11-07T10:14:00.476Z,98.70
2017-11-07T10:15:06.542Z,98.73
2017-11-07T10:16:12.631Z,99.11
2017-11-07T10:17:18.717Z,99.31
2017-11-07T10:18:24.781Z,99.45
2017-11-07T10:19:30.849Z,99.59
2017-11-07T10:20:36.570Z,100.00
2017-11-07T10:21:42.314Z,100.00
2017-11-07T10:22:48.020Z,100.00
2017-11-07T10:23:53.370Z,100.00
2017-11-07T10:24:59.069Z,100.00
2017-11-07T10:26:04.594Z,99.91
2017-11-07T10:27:10.269Z,99.72
2017-11-07T10:28:16.327Z,99.68
2017-11-07T10:29:25.188Z,99.70
2017-11-07T10:30:31.230Z,99.72
2017-11-07T10:31:37.044Z,99.59
2017-11-07T10:32:43.124Z,99.45
2017-11-07T10:33:49.209Z,99.33
2017-11-07T10:34:55.274Z,99.15
2017-11-07T10:36:00.653Z,99.31
2017-11-07T10:37:06.414Z,99.41
2017-11-07T10:38:12.521Z,99.72
2017-11-07T10:39:18.572Z,99.33
2017-11-07T10:40:24.631Z,99.10
2017-11-07T10:41:30.689Z,98.89
2017-11-07T10:42:36.801Z,99.20
2017-11-07T10:43:42.473Z,99.17
2017-11-07T10:44:48.541Z,98.85
2017-11-07T10:45:53.894Z,98.82
2017-11-07T10:46:59.979Z,99.20
2017-11-07T10:48:05.712Z,99.61
2017-11-07T10:49:11.759Z,99.59
2017-11-07T10:50:17.505Z,99.57
2017-11-07T10:51:23.592Z,99.98
2017-11-07T10:52:29.691Z,100.00
2017-11-07T10:53:35.398Z,99.43
2017-11-07T10:54:40.902Z,99.23
2017-11-07T10:55:46.034Z,99.33
2017-11-07T10:56:51.388Z,99.36
2017-11-07T10:57:57.274Z,99.02
2017-11-07T10:59:03.332Z,98.90
2017-11-07T11:00:09.373Z,98.58
2017-11-07T11:01:15.322Z,98.28
2017-11-07T11:02:20.699Z,98.58
2017-11-07T11:03:26.570Z,98.74
2017-11-07T11:04:32.640Z,98.85
2017-11-07T11:05:38.698Z,99.25
2017-11-07T11:06:44.793Z,99.33
2017-11-07T11:07:50.850Z,99.24
2017-11-07T11:08:56.912Z,99.54
2017-11-07T11:10:02.988Z,99.69
2017-11-07T11:11:09.090Z,99.79
2017-11-07T11:12:15.304Z,99.46
2017-11-07T11:13:21.343Z,99.08
2017-11-07T11:14:27.406Z,98.72
2017-11-07T11:15:33.300Z,98.71
2017-11-07T11:16:39.380Z,99.10
2017-11-07T11:17:45.441Z,98.95
2017-11-07T11:18:51.511Z,98.94
2017-11-07T11:19:57.560Z,98.81
2017-11-07T11:21:03.633Z,98.65
2017-11-07T11:22:09.719Z,98.56
2017-11-07T11:23:15.822Z,98.34
2017-11-07T11:24:21.882Z,97.87
2017-11-07T11:25:27.946Z,97.98
2017-11-07T11:26:33.838Z,98.52
2017-11-07T11:27:39.945Z,98.58
2017-11-07T11:28:46.002Z,98.77
2017-11-07T11:29:52.082Z,98.66
2017-11-07T11:30:58.129Z,98.63
2017-11-07T11:32:04.198Z,98.39
2017-11-07T11:33:10.242Z,98.81
2017-11-07T11:34:16.349Z,99.07
2017-11-07T11:35:22.436Z,99.07
2017-11-07T11:36:28.512Z,98.91
2017-11-07T11:37:34.591Z,98.78
2017-11-07T11:38:40.643Z,98.59
2017-11-07T11:39:46.694Z,98.49
2017-11-07T11:40:52.737Z,98.46
2017-11-07T11:41:58.828Z,98.64
2017-11-07T11:43:04.551Z,98.42
2017-11-07T11:44:10.311Z,98.30
2017-11-07T11:45:16.405Z,97.90
2017-11-07T11:46:22.484Z,98.39
2017-11-07T11:47:28.581Z,98.89
2017-11-07T11:48:34.686Z,99.63
2017-11-07T11:49:40.769Z,99.40
2017-11-07T11:50:46.500Z,99.10
2017-11-07T11:51:52.259Z,99.52
2017-11-07T11:52:58.338Z,99.34
2017-11-07T11:54:04.066Z,99.08
2017-11-07T11:55:10.140Z,99.33
2017-11-07T11:56:15.507Z,99.06
2017-11-07T11:57:21.403Z,98.79
2017-11-07T11:58:27.463Z,98.25
2017-11-07T11:59:33.540Z,98.20
2017-11-07T12:00:39.235Z,97.84
2017-11-07T12:01:45.148Z,97.70
2017-11-07T12:02:51.208Z,97.59
2017-11-07T12:03:57.258Z,97.84
2017-11-07T12:05:03.306Z,97.54
2017-11-07T12:06:09.363Z,97.99
2017-11-07T12:07:15.455Z,98.16
2017-11-07T12:08:21.130Z,97.98
2017-11-07T12:09:27.208Z,97.89
2017-11-07T12:10:33.265Z,97.80
2017-11-07T12:11:39.377Z,97.65
2017-11-07T12:12:45.451Z,97.60
2017-11-07T12:13:51.148Z,97.73
2017-11-07T12:14:57.206Z,97.67
2017-11-07T12:16:02.537Z,97.32
2017-11-07T12:17:08.627Z,97.31
2017-11-07T12:18:14.353Z,97.24
2017-11-07T12:19:20.062Z,97.44
2017-11-07T12:20:26.150Z,98.45
2017-11-07T12:21:32.958Z,98.58
2017-11-07T12:22:38.714Z,98.31
2017-11-07T12:23:44.780Z,98.19
2017-11-07T12:24:50.843Z,97.99
2017-11-07T12:25:56.925Z,98.28
2017-11-07T12:27:03.050Z,98.07
2017-11-07T12:28:09.145Z,98.03
2017-11-07T12:29:15.234Z,98.19
2017-11-07T12:30:20.936Z,98.75
2017-11-07T12:31:27.025Z,99.08
2017-11-07T12:32:32.733Z,98.85
2017-11-07T12:33:38.605Z,98.81
2017-11-07T12:34:44.674Z,98.62
2017-11-07T12:35:50.375Z,98.81
2017-11-07T12:36:55.756Z,98.96
2017-11-07T12:38:01.838Z,99.26
2017-11-07T12:39:07.193Z,99.41
2017-11-07T12:40:13.261Z,99.37
2017-11-07T12:41:19.334Z,99.59
2017-11-07T12:42:25.097Z,99.59
2017-11-07T12:43:31.171Z,99.48
2017-11-07T12:44:37.249Z,99.19
2017-11-07T12:45:43.309Z,99.03
2017-11-07T12:46:49.394Z,98.81
2017-11-07T12:47:55.497Z,98.99
2017-11-07T12:49:01.577Z,99.07
2017-11-07T12:50:20.578Z,98.99
2017-11-07T12:51:37.550Z,98.75
2017-11-07T12:52:43.441Z,98.98
2017-11-07T12:53:49.523Z,99.49
2017-11-07T12:54:55.615Z,99.75
2017-11-07T12:56:01.320Z,99.54
2017-11-07T12:57:07.447Z,99.49
2017-11-07T12:58:13.534Z,99.49
2017-11-07T12:59:19.402Z,99.55
2017-11-07T13:00:25.536Z,99.66
2017-11-07T13:01:31.614Z,99.90
2017-11-07T13:02:37.721Z,99.96
2017-11-07T13:03:43.452Z,99.76
2017-11-07T13:04:49.129Z,99.55
2017-11-07T13:05:55.178Z,100.00
2017-11-07T13:07:01.284Z,100.00
2017-11-07T13:08:09.470Z,100.00
2017-11-07T13:09:15.725Z,99.63
2017-11-07T13:10:22.472Z,99.52
2017-11-07T13:11:28.603Z,99.25
2017-11-07T13:12:34.674Z,98.88
2017-11-07T13:13:40.752Z,98.55
2017-11-07T13:14:46.808Z,98.49
2017-11-07T13:15:52.865Z,98.72
2017-11-07T13:16:58.967Z,98.62
2017-11-07T13:18:05.058Z,98.58
2017-11-07T13:19:11.112Z,98.46
2017-11-07T13:20:16.997Z,98.25
2017-11-07T13:21:23.051Z,98.14
2017-11-07T13:22:29.089Z,98.04
2017-11-07T13:23:35.171Z,98.24
2017-11-07T13:24:41.213Z,98.59
2017-11-07T13:25:47.298Z,99.24
2017-11-07T13:26:53.384Z,99.32
2017-11-07T13:27:59.260Z,99.24
2017-11-07T13:29:05.314Z,99.41
2017-11-07T13:30:11.368Z,99.38
2017-11-07T13:31:17.465Z,99.71
2017-11-07T13:32:23.516Z,99.65
2017-11-07T13:33:29.624Z,99.42
2017-11-07T13:34:35.680Z,99.54
2017-11-07T13:35:41.722Z,99.82
2017-11-07T13:36:47.795Z,99.80
2017-11-07T13:37:53.890Z,99.87
2017-11-07T13:38:59.974Z,100.00
2017-11-07T13:40:06.039Z,99.66
2017-11-07T13:41:12.133Z,99.54
2017-11-07T13:42:18.224Z,99.79
2017-11-07T13:43:24.311Z,99.34
2017-11-07T13:44:30.383Z,99.10
2017-11-07T13:45:36.463Z,98.97
2017-11-07T13:46:42.538Z,99.02
2017-11-07T13:47:48.610Z,99.30
2017-11-07T13:48:54.666Z,99.52
2017-11-07T13:50:00.720Z,99.39
2017-11-07T13:51:06.412Z,99.35
2017-11-07T13:52:12.470Z,99.83
2017-11-07T13:53:18.561Z,99.95
2017-11-07T13:54:24.623Z,100.00
2017-11-07T13:55:30.719Z,100.00
2017-11-07T13:56:36.759Z,99.76
2017-11-07T13:57:42.831Z,99.67
2017-11-07T13:58:48.915Z,100.00
2017-11-07T13:59:55.004Z,100.00
2017-11-07T14:01:01.088Z,100.00
2017-11-07T14:02:06.998Z,100.00
2017-11-07T14:03:13.115Z,100.00
2017-11-07T14:04:19.188Z,100.00
2017-11-07T14:05:25.245Z,100.00
2017-11-07T14:06:36.102Z,99.73
2017-11-07T14:07:43.111Z,99.49